createdAt,value
2018-05-13T00:02:24.375Z,4.73
2018-05-13T00:04:52.638Z,4.67
2018-05-13T00:07:20.898Z,5.00
2018-05-13T00:09:49.900Z,5.10
2018-05-13T00:12:18.155Z,4.60
2018-05-13T00:14:46.408Z,4.73
2018-05-13T00:17:14.640Z,4.87
2018-05-13T00:19:44.042Z,4.70
2018-05-13T00:22:12.279Z,4.80
2018-05-13T00:24:40.546Z,5.27
2018-05-13T00:27:10.287Z,5.33
2018-05-13T00:29:39.371Z,5.90
2018-05-13T00:32:08.748Z,5.83
2018-05-13T00:34:36.999Z,5.67
2018-05-13T00:37:05.248Z,5.70
2018-05-13T00:39:33.510Z,6.17
2018-05-13T00:42:01.787Z,5.53
2018-05-13T00:44:30.148Z,5.60
2018-05-13T00:46:58.399Z,6.27
2018-05-13T00:49:28.162Z,5.60
2018-05-13T00:51:57.166Z,5.67
2018-05-13T00:54:43.939Z,7.37
2018-05-13T00:57:12.267Z,6.57
2018-05-13T00:59:41.291Z,6.57
2018-05-13T01:02:09.527Z,6.20
2018-05-13T01:04:38.555Z,7.23
2018-05-13T01:07:07.554Z,6.80
2018-05-13T01:09:36.582Z,6.43
2018-05-13T01:12:04.819Z,6.30
2018-05-13T01:14:33.080Z,6.23
2018-05-13T01:17:01.298Z,6.23
2018-05-13T01:19:29.566Z,7.40
2018-05-13T01:21:57.835Z,6.53
2018-05-13T01:24:27.219Z,6.80
2018-05-13T01:26:55.537Z,6.50
2018-05-13T01:29:24.551Z,6.50
2018-05-13T01:31:54.134Z,7.07
2018-05-13T01:34:22.391Z,6.70
2018-05-13T01:36:50.639Z,6.20
2018-05-13T01:39:19.663Z,6.20
2018-05-13T01:41:47.903Z,6.50
2018-05-13T01:44:16.234Z,6.57
2018-05-13T01:46:45.240Z,6.93
2018-05-13T01:49:13.470Z,6.97
2018-05-13T01:51:41.806Z,6.63
2018-05-13T01:54:10.830Z,6.87
2018-05-13T01:56:39.125Z,7.20
2018-05-13T01:59:07.352Z,7.37
2018-05-13T02:01:35.598Z,7.60
2018-05-13T02:04:03.833Z,6.90
2018-05-13T02:06:32.103Z,6.37
2018-05-13T02:09:00.324Z,6.53
2018-05-13T02:11:28.571Z,6.23
2018-05-13T02:13:56.806Z,6.27
2018-05-13T02:16:25.059Z,6.13
2018-05-13T02:18:53.634Z,5.57
2018-05-13T02:21:21.895Z,6.23
2018-05-13T02:23:51.715Z,5.77
2018-05-13T02:26:21.331Z,6.30
2018-05-13T02:28:50.708Z,6.07
2018-05-13T02:31:18.981Z,5.77
2018-05-13T02:33:47.228Z,5.60
2018-05-13T02:36:15.472Z,5.53
2018-05-13T02:38:43.713Z,5.33
2018-05-13T02:41:12.727Z,5.70
2018-05-13T02:43:41.727Z,5.67
2018-05-13T02:46:10.755Z,6.10
2018-05-13T02:48:38.991Z,5.40
2018-05-13T02:51:07.243Z,5.60
2018-05-13T02:53:35.480Z,5.30
2018-05-13T02:56:03.732Z,4.93
2018-05-13T02:58:32.001Z,5.40
2018-05-13T03:01:00.234Z,5.00
2018-05-13T03:03:28.467Z,4.70
2018-05-13T03:05:56.707Z,5.40
2018-05-13T03:08:25.719Z,5.13
2018-05-13T03:10:53.951Z,5.87
2018-05-13T03:13:22.194Z,5.47
2018-05-13T03:15:50.422Z,5.13
2018-05-13T03:18:18.670Z,5.70
2018-05-13T03:20:46.903Z,4.90
2018-05-13T03:23:15.918Z,5.03
2018-05-13T03:25:44.166Z,5.00
2018-05-13T03:28:12.406Z,5.83
2018-05-13T03:30:40.650Z,4.80
2018-05-13T03:33:09.761Z,5.17
2018-05-13T03:35:38.768Z,5.23
2018-05-13T03:38:08.371Z,5.00
2018-05-13T03:40:36.617Z,5.27
2018-05-13T03:43:04.867Z,5.17
2018-05-13T03:45:33.868Z,4.77
2018-05-13T03:48:03.255Z,4.80
2018-05-13T03:50:31.523Z,4.40
2018-05-13T03:52:59.795Z,4.57
2018-05-13T03:55:28.023Z,4.43
2018-05-13T03:57:56.284Z,4.03
2018-05-13T04:00:24.521Z,4.07
2018-05-13T04:02:52.791Z,4.10
2018-05-13T04:05:21.031Z,3.83
2018-05-13T04:11:37.459Z,4.00
2018-05-13T04:14:23.568Z,4.57
2018-05-13T04:16:51.887Z,4.03
2018-05-13T04:19:20.898Z,3.70
2018-05-13T04:21:49.136Z,3.90
2018-05-13T04:24:17.447Z,4.43
2018-05-13T04:26:46.455Z,3.90
2018-05-13T04:29:15.483Z,3.90
2018-05-13T04:31:44.487Z,3.67
2018-05-13T04:34:12.738Z,3.87
2018-05-13T04:36:41.064Z,3.47
2018-05-13T04:39:09.311Z,3.57
2018-05-13T04:41:37.632Z,3.57
2018-05-13T04:44:06.731Z,3.93
2018-05-13T04:46:35.739Z,3.43
2018-05-13T04:49:05.341Z,3.77
2018-05-13T04:51:33.606Z,3.20
2018-05-13T04:54:03.003Z,3.70
2018-05-13T04:56:31.247Z,3.37
2018-05-13T04:59:00.635Z,3.43
2018-05-13T05:01:28.866Z,3.30
2018-05-13T05:03:57.893Z,3.50
2018-05-13T05:06:26.124Z,3.37
2018-05-13T05:08:54.489Z,3.70
2018-05-13T05:11:22.615Z,3.23
2018-05-13T05:13:50.875Z,3.70
2018-05-13T05:16:19.105Z,3.80
2018-05-13T05:18:48.115Z,3.83
2018-05-13T05:21:17.130Z,3.73
2018-05-13T05:23:46.131Z,3.47
2018-05-13T05:26:15.155Z,3.73
2018-05-13T05:28:43.388Z,3.60
2018-05-13T05:31:11.719Z,3.40
2018-05-13T05:33:40.733Z,3.97
2018-05-13T05:36:10.489Z,3.90
2018-05-13T05:38:38.760Z,3.57
2018-05-13T05:41:07.023Z,3.73
2018-05-13T05:43:36.023Z,3.30
2018-05-13T05:46:05.427Z,3.77
2018-05-13T05:48:33.667Z,3.50
2018-05-13T05:51:03.090Z,3.20
2018-05-13T05:53:31.443Z,3.47
2018-05-13T05:56:00.475Z,3.70
2018-05-13T05:58:28.707Z,3.60
2018-05-13T06:00:56.966Z,3.70
2018-05-13T06:03:25.959Z,3.67
2018-05-13T06:05:54.264Z,3.57
2018-05-13T06:08:23.219Z,3.70
2018-05-13T06:10:52.228Z,3.70
2018-05-13T06:13:21.229Z,4.00
2018-05-13T06:15:50.262Z,3.20
2018-05-13T06:18:19.247Z,3.60
2018-05-13T06:20:48.643Z,3.90
2018-05-13T06:23:16.880Z,3.57
2018-05-13T06:25:45.138Z,3.70
2018-05-13T06:28:14.242Z,4.17
2018-05-13T06:30:43.264Z,3.50
2018-05-13T06:33:12.276Z,3.90
2018-05-13T06:35:40.527Z,3.73
2018-05-13T06:38:08.762Z,4.00
2018-05-13T06:40:37.780Z,3.80
2018-05-13T06:43:06.019Z,3.80
2018-05-13T06:45:34.262Z,4.07
2018-05-13T06:48:02.519Z,4.23
2018-05-13T06:50:30.771Z,4.07
2018-05-13T06:52:59.023Z,4.17
2018-05-13T06:55:27.261Z,4.07
2018-05-13T06:57:55.539Z,4.60
2018-05-13T07:00:23.857Z,4.43
2018-05-13T07:02:52.904Z,4.33
2018-05-13T07:05:21.887Z,4.37
2018-05-13T07:07:50.135Z,4.07
2018-05-13T07:10:18.419Z,4.03
2018-05-13T07:12:46.647Z,3.93
2018-05-13T07:15:14.895Z,4.10
2018-05-13T07:17:43.143Z,4.77
2018-05-13T07:20:11.375Z,4.77
2018-05-13T07:22:39.635Z,4.20
2018-05-13T07:25:07.883Z,4.40
2018-05-13T07:27:37.010Z,4.13
2018-05-13T07:30:05.242Z,4.40
2018-05-13T07:32:33.499Z,4.67
2018-05-13T07:35:01.806Z,4.63
2018-05-13T07:37:30.059Z,4.50
2018-05-13T07:39:58.291Z,4.33
2018-05-13T07:42:26.550Z,5.00
2018-05-13T07:44:54.781Z,4.70
2018-05-13T07:47:23.083Z,4.43
2018-05-13T07:49:52.824Z,4.80
2018-05-13T07:52:21.848Z,3.90
2018-05-13T07:54:50.074Z,4.73
2018-05-13T07:57:18.316Z,4.60
2018-05-13T07:59:46.566Z,4.50
2018-05-13T08:02:14.803Z,4.40
2018-05-13T08:04:43.061Z,4.50
2018-05-13T08:07:12.098Z,4.47
2018-05-13T08:09:40.348Z,4.93
2018-05-13T08:12:08.575Z,4.87
2018-05-13T08:14:36.904Z,4.90
2018-05-13T08:17:05.131Z,4.50
2018-05-13T08:19:34.164Z,4.70
2018-05-13T08:22:02.429Z,4.93
2018-05-13T08:24:31.465Z,4.50
2018-05-13T08:27:00.467Z,4.50
2018-05-13T08:29:28.722Z,4.00
2018-05-13T08:31:57.785Z,3.77
2018-05-13T08:34:26.040Z,3.53
2018-05-13T08:36:54.278Z,3.60
2018-05-13T08:39:22.544Z,4.07
2018-05-13T08:41:50.788Z,3.53
2018-05-13T08:44:19.023Z,3.77
2018-05-13T08:46:47.268Z,3.97
2018-05-13T08:49:16.386Z,3.90
2018-05-13T08:51:45.396Z,3.77
2018-05-13T08:54:14.410Z,3.30
2018-05-13T08:56:42.675Z,3.87
2018-05-13T08:59:11.720Z,3.70
2018-05-13T09:01:40.000Z,3.30
2018-05-13T09:04:08.257Z,3.57
2018-05-13T09:06:37.566Z,5.03
2018-05-13T09:09:06.616Z,5.10
2018-05-13T09:11:34.893Z,4.10
2018-05-13T09:14:03.206Z,4.50
2018-05-13T09:16:31.443Z,4.17
2018-05-13T09:18:59.746Z,3.23
2018-05-13T09:21:28.755Z,3.13
2018-05-13T09:23:57.013Z,3.43
2018-05-13T09:26:25.323Z,3.80
2018-05-13T09:28:54.354Z,3.70
2018-05-13T09:31:22.632Z,3.10
2018-05-13T09:33:51.640Z,3.73
2018-05-13T09:36:19.916Z,3.60
2018-05-13T09:38:48.921Z,3.60
2018-05-13T09:41:17.940Z,4.03
2018-05-13T09:43:46.174Z,4.40
2018-05-13T09:46:14.457Z,4.67
2018-05-13T09:48:42.726Z,4.23
2018-05-13T09:51:10.986Z,5.00
2018-05-13T09:53:40.009Z,4.83
2018-05-13T09:56:09.018Z,5.37
2018-05-13T09:58:37.306Z,5.70
2018-05-13T10:01:05.575Z,5.40
2018-05-13T10:03:34.608Z,6.17
2018-05-13T10:06:02.902Z,6.23
2018-05-13T10:08:32.003Z,6.53
2018-05-13T10:11:00.383Z,5.87
2018-05-13T10:13:29.339Z,6.33
2018-05-13T10:15:57.652Z,6.33
2018-05-13T10:18:26.671Z,6.63
2018-05-13T10:20:55.784Z,6.63
2018-05-13T10:23:24.824Z,7.37
2018-05-13T10:25:53.125Z,6.00
2018-05-13T10:28:21.389Z,6.50
2018-05-13T10:30:49.656Z,7.37
2018-05-13T10:33:18.666Z,8.00
2018-05-13T10:35:47.728Z,7.30
2018-05-13T10:38:15.958Z,7.17
2018-05-13T10:40:44.993Z,7.33
2018-05-13T10:43:13.256Z,7.27
2018-05-13T10:45:42.299Z,7.50
2018-05-13T10:48:10.546Z,7.23
2018-05-13T10:50:39.581Z,7.30
2018-05-13T10:53:07.827Z,7.33
2018-05-13T10:55:36.090Z,6.50
2018-05-13T10:58:05.745Z,7.43
2018-05-13T11:00:34.752Z,7.27
2018-05-13T11:03:03.055Z,6.47
2018-05-13T11:05:31.311Z,6.50
2018-05-13T11:07:59.596Z,8.17
2018-05-13T11:10:27.831Z,6.97
2018-05-13T11:12:56.107Z,8.70
2018-05-13T11:15:25.136Z,8.40
2018-05-13T11:17:53.399Z,8.70
2018-05-13T11:20:22.449Z,9.53
2018-05-13T11:22:50.724Z,10.17
2018-05-13T11:25:19.032Z,9.20
2018-05-13T11:27:47.292Z,9.10
2018-05-13T11:30:15.680Z,8.60
2018-05-13T11:32:44.723Z,10.30
2018-05-13T11:35:12.987Z,9.77
2018-05-13T11:37:41.271Z,10.27
2018-05-13T11:40:09.533Z,9.87
2018-05-13T11:42:38.775Z,9.77
2018-05-13T11:45:07.023Z,9.90
2018-05-13T11:47:35.322Z,9.70
2018-05-13T11:50:04.350Z,9.80
2018-05-13T11:52:32.654Z,9.47
2018-05-13T11:55:01.453Z,8.87
2018-05-13T11:57:29.726Z,9.50
2018-05-13T11:59:58.747Z,9.10
2018-05-13T12:02:27.100Z,9.03
2018-05-13T12:04:56.032Z,8.93
2018-05-13T12:07:25.082Z,8.30
2018-05-13T12:09:53.373Z,8.90
2018-05-13T12:12:21.700Z,9.03
2018-05-13T12:14:50.726Z,8.27
2018-05-13T12:17:19.748Z,8.50
2018-05-13T12:19:48.006Z,8.13
2018-05-13T12:22:17.602Z,7.80
2018-05-13T12:24:45.902Z,7.47
2018-05-13T12:27:14.236Z,7.43
2018-05-13T12:29:42.525Z,7.73
2018-05-13T12:32:10.795Z,7.57
2018-05-13T12:34:39.873Z,7.93
2018-05-13T12:37:08.104Z,7.07
2018-05-13T12:39:37.261Z,6.77
2018-05-13T12:42:05.515Z,7.00
2018-05-13T12:44:33.828Z,6.60
2018-05-13T12:47:02.130Z,7.23
2018-05-13T12:49:30.398Z,6.60
2018-05-13T12:51:58.656Z,7.17
2018-05-13T12:54:26.915Z,7.50
2018-05-13T12:56:55.948Z,7.73
2018-05-13T12:59:25.068Z,7.07
2018-05-13T13:01:53.305Z,7.07
2018-05-13T13:04:22.371Z,8.00
2018-05-13T13:06:50.622Z,7.60
2018-05-13T13:09:18.882Z,8.13
2018-05-13T13:11:47.114Z,7.70
2018-05-13T13:14:15.400Z,8.73
2018-05-13T13:16:44.443Z,9.23
2018-05-13T13:19:12.725Z,8.70
2018-05-13T13:21:40.976Z,8.40
2018-05-13T13:24:10.020Z,9.20
2018-05-13T13:26:38.271Z,8.53
2018-05-13T13:29:07.308Z,9.20
2018-05-13T13:31:35.576Z,8.47
2018-05-13T13:34:04.640Z,8.57
2018-05-13T13:36:33.001Z,8.83
2018-05-13T13:39:01.210Z,8.47
2018-05-13T13:41:29.462Z,8.87
2018-05-13T13:43:57.739Z,8.63
2018-05-13T13:46:26.781Z,8.33
2018-05-13T13:48:55.044Z,8.33
2018-05-13T13:51:24.083Z,9.00
2018-05-13T13:53:52.355Z,9.17
2018-05-13T13:56:20.629Z,8.00
2018-05-13T13:58:49.639Z,7.53
2018-05-13T14:01:17.899Z,7.93
2018-05-13T14:03:46.903Z,7.93
2018-05-13T14:06:15.201Z,7.57
2018-05-13T14:08:43.455Z,6.80
2018-05-13T14:11:12.526Z,8.17
2018-05-13T14:13:40.781Z,7.60
2018-05-13T14:16:09.066Z,7.50
2018-05-13T14:18:37.318Z,6.93
2018-05-13T14:21:05.595Z,6.77
2018-05-13T14:23:33.839Z,7.33
2018-05-13T14:26:02.904Z,6.67
2018-05-13T14:28:32.011Z,6.50
2018-05-13T14:31:00.277Z,6.77
2018-05-13T14:33:28.542Z,6.90
2018-05-13T14:35:57.583Z,7.23
2018-05-13T14:38:25.847Z,7.23
2018-05-13T14:40:54.896Z,7.43
2018-05-13T14:43:23.150Z,6.60
2018-05-13T14:45:51.415Z,7.83
2018-05-13T14:48:20.430Z,6.83
2018-05-13T14:50:49.482Z,7.70
2018-05-13T14:53:17.729Z,7.30
2018-05-13T14:55:46.771Z,7.80
2018-05-13T14:58:15.022Z,7.70
2018-05-13T15:00:44.060Z,7.27
2018-05-13T15:03:12.303Z,8.00
2018-05-13T15:05:41.332Z,7.07
2018-05-13T15:08:10.360Z,7.10
2018-05-13T15:10:38.623Z,7.33
2018-05-13T15:13:08.666Z,7.53
2018-05-13T15:15:36.939Z,6.77
2018-05-13T15:18:05.215Z,7.40
2018-05-13T15:20:33.487Z,7.77
2018-05-13T15:23:01.790Z,6.60
2018-05-13T15:25:30.047Z,6.53
2018-05-13T15:27:58.308Z,7.43
2018-05-13T15:30:26.558Z,6.87
2018-05-13T15:32:54.831Z,6.97
2018-05-13T15:35:23.071Z,6.67
2018-05-13T15:37:51.350Z,6.27
2018-05-13T15:40:20.391Z,6.77
2018-05-13T15:42:48.755Z,6.53
2018-05-13T15:45:16.919Z,5.90
2018-05-13T15:47:45.954Z,6.30
2018-05-13T15:50:14.191Z,6.47
2018-05-13T15:52:42.469Z,6.70
2018-05-13T15:55:10.792Z,5.83
2018-05-13T15:57:39.003Z,6.23
2018-05-13T16:00:08.040Z,6.77
2018-05-13T16:02:36.323Z,7.13
2018-05-13T16:05:04.592Z,6.57
2018-05-13T16:07:32.865Z,6.33
2018-05-13T16:10:01.189Z,6.37
2018-05-13T16:12:29.457Z,6.40
2018-05-13T16:14:57.703Z,7.37
2018-05-13T16:17:26.021Z,6.37
2018-05-13T16:19:55.144Z,7.20
2018-05-13T16:22:23.439Z,7.00
2018-05-13T16:24:51.706Z,6.53
2018-05-13T16:27:20.775Z,6.60
2018-05-13T16:29:49.151Z,6.53
2018-05-13T16:32:17.451Z,6.03
2018-05-13T16:34:45.687Z,6.53
2018-05-13T16:37:14.744Z,5.90
2018-05-13T16:39:43.020Z,6.30
2018-05-13T16:42:11.373Z,6.27
2018-05-13T16:44:40.394Z,6.40
2018-05-13T16:47:08.639Z,6.53
2018-05-13T16:49:36.906Z,6.57
2018-05-13T16:52:05.171Z,6.60
2018-05-13T16:54:33.457Z,5.93
2018-05-13T16:57:01.723Z,6.77
2018-05-13T16:59:31.144Z,6.23
2018-05-13T17:02:00.158Z,6.67
2018-05-13T17:04:29.188Z,6.33
2018-05-13T17:06:57.448Z,6.40
2018-05-13T17:09:25.728Z,7.10
2018-05-13T17:11:53.978Z,6.70
2018-05-13T17:14:22.253Z,6.83
2018-05-13T17:16:51.280Z,7.07
2018-05-13T17:19:19.558Z,6.27
2018-05-13T17:21:47.815Z,6.47
2018-05-13T17:24:16.075Z,6.43
2018-05-13T17:26:45.110Z,6.83
2018-05-13T17:29:13.401Z,7.03
2018-05-13T17:31:41.667Z,7.20
2018-05-13T17:34:10.759Z,7.07
2018-05-13T17:36:38.928Z,6.30
2018-05-13T17:39:07.213Z,8.37
2018-05-13T17:41:35.470Z,7.47
2018-05-13T17:44:03.719Z,7.03
2018-05-13T17:46:33.127Z,7.03
2018-05-13T17:49:02.177Z,6.60
2018-05-13T17:51:30.446Z,6.23
2018-05-13T17:53:59.463Z,6.97
2018-05-13T17:56:27.741Z,7.03
2018-05-13T17:58:56.784Z,6.40
2018-05-13T18:01:25.055Z,6.87
2018-05-13T18:03:53.321Z,5.87
2018-05-13T18:06:22.932Z,6.70
2018-05-13T18:08:51.951Z,6.57
2018-05-13T18:11:20.979Z,6.10
2018-05-13T18:13:49.227Z,7.30
2018-05-13T18:16:18.238Z,6.40
2018-05-13T18:18:47.250Z,6.50
2018-05-13T18:21:16.380Z,6.47
2018-05-13T18:23:44.626Z,6.40
2018-05-13T18:26:12.887Z,6.70
2018-05-13T18:28:41.141Z,6.10
2018-05-13T18:31:09.479Z,5.63
2018-05-13T18:33:38.428Z,6.70
2018-05-13T18:36:07.459Z,6.43
2018-05-13T18:38:35.721Z,6.83
2018-05-13T18:41:04.768Z,6.63
2018-05-13T18:43:33.042Z,7.13
2018-05-13T18:46:01.312Z,7.30
2018-05-13T18:48:30.321Z,6.47
2018-05-13T18:50:59.447Z,5.60
2018-05-13T18:53:27.677Z,6.80
2018-05-13T18:55:55.952Z,6.23
2018-05-13T18:58:24.313Z,6.17
2018-05-13T19:00:52.579Z,6.00
2018-05-13T19:03:21.601Z,5.60
2018-05-13T19:05:49.885Z,7.00
2018-05-13T19:08:18.887Z,6.47
2018-05-13T19:10:47.928Z,6.33
2018-05-13T19:13:16.168Z,5.87
2018-05-13T19:15:44.466Z,7.17
2018-05-13T19:18:13.490Z,7.27
2018-05-13T19:20:41.754Z,6.37
2018-05-13T19:23:11.511Z,7.00
2018-05-13T19:25:39.804Z,7.00
2018-05-13T19:28:08.059Z,6.63
2018-05-13T19:30:37.096Z,6.60
2018-05-13T19:33:05.360Z,5.87
2018-05-13T19:35:34.401Z,7.83
2018-05-13T19:38:02.796Z,6.10
2018-05-13T19:40:32.148Z,6.77
2018-05-13T19:43:00.427Z,6.37
2018-05-13T19:45:28.890Z,8.37
2018-05-13T19:47:57.167Z,8.53
2018-05-13T19:50:25.422Z,6.47
2018-05-13T19:52:53.737Z,6.60
2018-05-13T19:55:21.983Z,7.03
2018-05-13T19:57:50.239Z,7.03
2018-05-13T20:00:18.492Z,7.43
2018-05-13T20:02:47.634Z,6.57
2018-05-13T20:05:15.798Z,6.93
2018-05-13T20:07:44.838Z,6.77
2018-05-13T20:10:13.088Z,7.43
2018-05-13T20:12:42.122Z,7.70
2018-05-13T20:15:10.372Z,6.87
2018-05-13T20:17:39.402Z,6.93
2018-05-13T20:20:07.649Z,7.80
2018-05-13T20:25:48.813Z,7.23
2018-05-13T20:28:17.071Z,7.50
2018-05-13T20:30:45.311Z,7.13
2018-05-13T20:33:13.579Z,7.73
2018-05-13T20:35:42.584Z,7.40
2018-05-13T20:38:10.830Z,7.30
2018-05-13T20:40:39.072Z,7.27
2018-05-13T20:43:07.335Z,7.07
2018-05-13T20:45:36.354Z,7.77
2018-05-13T20:48:04.650Z,7.10
2018-05-13T20:50:32.924Z,7.20
2018-05-13T20:55:43.246Z,7.00
2018-05-13T20:58:11.528Z,8.00
2018-05-13T21:00:39.753Z,7.70
2018-05-13T21:03:08.026Z,6.93
2018-05-13T21:05:36.305Z,6.47
2018-05-13T21:08:04.564Z,7.33
2018-05-13T21:10:32.839Z,6.73
2018-05-13T21:13:01.096Z,7.87
2018-05-13T21:15:30.890Z,6.90
2018-05-13T21:17:59.136Z,7.33
2018-05-13T21:20:28.733Z,7.60
2018-05-13T21:22:56.987Z,7.60
2018-05-13T21:25:25.236Z,7.60
2018-05-13T21:27:53.483Z,8.47
2018-05-13T21:30:21.727Z,7.23
2018-05-13T21:32:50.764Z,7.37
2018-05-13T21:35:19.017Z,7.60
2018-05-13T21:37:48.095Z,8.43
2018-05-13T21:40:17.047Z,7.63
2018-05-13T21:42:45.279Z,7.20
2018-05-13T21:45:14.318Z,7.47
2018-05-13T21:47:42.561Z,7.30
2018-05-13T21:50:10.811Z,7.47
2018-05-13T21:52:39.820Z,7.57
2018-05-13T21:55:08.835Z,6.90
2018-05-13T21:57:37.082Z,7.97
2018-05-13T22:00:06.107Z,7.33
2018-05-13T22:02:34.350Z,7.27
2018-05-13T22:05:02.619Z,7.80
2018-05-13T22:07:30.882Z,7.77
2018-05-13T22:10:00.271Z,7.40
2018-05-13T22:12:28.514Z,8.17
2018-05-13T22:14:56.771Z,7.07
2018-05-13T22:17:25.938Z,7.07
2018-05-13T22:19:54.164Z,7.13
2018-05-13T22:22:23.187Z,7.23
2018-05-13T22:24:52.210Z,7.80
2018-05-13T22:27:20.434Z,8.27
2018-05-13T22:29:48.704Z,7.10
2018-05-13T22:32:16.950Z,7.33
2018-05-13T22:34:45.947Z,6.90
2018-05-13T22:37:14.967Z,7.27
2018-05-13T22:39:43.970Z,8.20
2018-05-13T22:42:12.982Z,7.40
2018-05-13T22:44:41.990Z,6.80
2018-05-13T22:47:11.738Z,7.93
2018-05-13T22:49:39.979Z,7.70
2018-05-13T22:52:08.241Z,7.50
2018-05-13T22:54:36.531Z,7.37
2018-05-13T22:57:04.791Z,7.80
2018-05-13T22:59:33.037Z,7.40
2018-05-13T23:02:01.310Z,7.13
2018-05-13T23:04:29.545Z,7.47
2018-05-13T23:06:57.807Z,6.53
2018-05-13T23:09:26.127Z,7.47
2018-05-13T23:11:54.375Z,7.37
2018-05-13T23:14:22.610Z,7.03
2018-05-13T23:16:50.888Z,7.83
2018-05-13T23:19:19.132Z,8.53
2018-05-13T23:21:47.391Z,8.00
2018-05-13T23:24:15.639Z,8.60
2018-05-13T23:26:44.659Z,8.73
2018-05-13T23:29:12.956Z,7.80
2018-05-13T23:31:41.970Z,9.03
2018-05-13T23:34:10.206Z,8.73
2018-05-13T23:36:38.464Z,8.63
2018-05-13T23:39:06.711Z,8.70
2018-05-13T23:41:35.731Z,9.67
2018-05-13T23:44:03.995Z,9.73
2018-05-13T23:46:33.032Z,9.93
2018-05-13T23:49:01.340Z,9.73
2018-05-13T23:51:29.597Z,9.70
2018-05-13T23:53:58.595Z,9.63
2018-05-13T23:56:28.344Z,9.77
2018-05-13T23:58:56.602Z,10.63
